sensor_id;sensor_type;location;lat;lon;timestamp;P1;durP1;ratioP1;P2;durP2;ratioP2
56991;SDS011;42885;49.754;18.636;2022-07-29T00:00:49;9.87;;;7.10;;
56991;SDS011;42885;49.754;18.636;2022-07-29T00:03:20;11.28;;;7.45;;
56991;SDS011;42885;49.754;18.636;2022-07-29T00:05:51;8.70;;;7.58;;
56991;SDS011;42885;49.754;18.636;2022-07-29T00:08:33;9.47;;;7.40;;
56991;SDS011;42885;49.754;18.636;2022-07-29T00:11:04;9.95;;;7.58;;
56991;SDS011;42885;49.754;18.636;2022-07-29T00:13:35;11.77;;;7.00;;
56991;SDS011;42885;49.754;18.636;2022-07-29T00:16:06;9.43;;;7.10;;
56991;SDS011;42885;49.754;18.636;2022-07-29T00:18:36;11.85;;;7.53;;
56991;SDS011;42885;49.754;18.636;2022-07-29T00:21:08;13.65;;;9.65;;
56991;SDS011;42885;49.754;18.636;2022-07-29T00:23:38;11.55;;;8.90;;
56991;SDS011;42885;49.754;18.636;2022-07-29T00:26:10;13.75;;;9.80;;
56991;SDS011;42885;49.754;18.636;2022-07-29T00:28:40;15.32;;;10.28;;
56991;SDS011;42885;49.754;18.636;2022-07-29T00:31:11;17.75;;;10.08;;
56991;SDS011;42885;49.754;18.636;2022-07-29T00:33:42;15.38;;;10.15;;
56991;SDS011;42885;49.754;18.636;2022-07-29T00:36:13;14.20;;;10.15;;
56991;SDS011;42885;49.754;18.636;2022-07-29T00:38:44;14.58;;;10.43;;
56991;SDS011;42885;49.754;18.636;2022-07-29T00:41:15;14.33;;;10.28;;
56991;SDS011;42885;49.754;18.636;2022-07-29T00:43:47;14.60;;;10.35;;
56991;SDS011;42885;49.754;18.636;2022-07-29T00:46:17;12.85;;;9.78;;
56991;SDS011;42885;49.754;18.636;2022-07-29T00:48:48;13.63;;;10.23;;
56991;SDS011;42885;49.754;18.636;2022-07-29T00:51:19;13.53;;;10.20;;
56991;SDS011;42885;49.754;18.636;2022-07-29T00:53:50;11.73;;;9.83;;
56991;SDS011;42885;49.754;18.636;2022-07-29T00:56:21;14.53;;;10.33;;
56991;SDS011;42885;49.754;18.636;2022-07-29T00:59:12;15.13;;;11.40;;
56991;SDS011;42885;49.754;18.636;2022-07-29T01:01:43;19.80;;;11.68;;
56991;SDS011;42885;49.754;18.636;2022-07-29T01:04:14;18.48;;;13.62;;
56991;SDS011;42885;49.754;18.636;2022-07-29T01:06:45;22.40;;;15.67;;
56991;SDS011;42885;49.754;18.636;2022-07-29T01:09:18;18.60;;;14.70;;
56991;SDS011;42885;49.754;18.636;2022-07-29T01:11:49;20.92;;;14.10;;
56991;SDS011;42885;49.754;18.636;2022-07-29T01:14:20;18.73;;;14.00;;
56991;SDS011;42885;49.754;18.636;2022-07-29T01:16:58;24.07;;;13.40;;
56991;SDS011;42885;49.754;18.636;2022-07-29T01:22:36;15.70;;;11.75;;
56991;SDS011;42885;49.754;18.636;2022-07-29T01:37:26;13.45;;;10.38;;
56991;SDS011;42885;49.754;18.636;2022-07-29T01:39:58;16.20;;;10.60;;
56991;SDS011;42885;49.754;18.636;2022-07-29T01:42:34;15.10;;;10.95;;
56991;SDS011;42885;49.754;18.636;2022-07-29T01:48:05;12.30;;;10.23;;
56991;SDS011;42885;49.754;18.636;2022-07-29T01:50:51;14.70;;;10.35;;
56991;SDS011;42885;49.754;18.636;2022-07-29T01:53:29;15.80;;;10.13;;
56991;SDS011;42885;49.754;18.636;2022-07-29T01:56:19;12.73;;;10.18;;
56991;SDS011;42885;49.754;18.636;2022-07-29T01:58:51;13.87;;;10.60;;
56991;SDS011;42885;49.754;18.636;2022-07-29T02:01:23;16.83;;;10.67;;
56991;SDS011;42885;49.754;18.636;2022-07-29T02:03:57;14.78;;;10.05;;
56991;SDS011;42885;49.754;18.636;2022-07-29T02:06:31;15.98;;;9.95;;
56991;SDS011;42885;49.754;18.636;2022-07-29T02:09:04;13.08;;;10.10;;
56991;SDS011;42885;49.754;18.636;2022-07-29T02:11:36;12.40;;;10.03;;
56991;SDS011;42885;49.754;18.636;2022-07-29T02:14:09;18.02;;;10.13;;
56991;SDS011;42885;49.754;18.636;2022-07-29T02:16:42;13.35;;;9.70;;
56991;SDS011;42885;49.754;18.636;2022-07-29T02:19:16;14.47;;;9.90;;
56991;SDS011;42885;49.754;18.636;2022-07-29T02:21:48;17.65;;;10.45;;
56991;SDS011;42885;49.754;18.636;2022-07-29T02:24:23;15.30;;;10.10;;
56991;SDS011;42885;49.754;18.636;2022-07-29T02:26:55;15.43;;;10.80;;
56991;SDS011;42885;49.754;18.636;2022-07-29T02:29:28;15.32;;;10.23;;
56991;SDS011;42885;49.754;18.636;2022-07-29T02:32:01;11.97;;;10.00;;
56991;SDS011;42885;49.754;18.636;2022-07-29T02:34:35;14.95;;;10.13;;
56991;SDS011;42885;49.754;18.636;2022-07-29T02:37:15;14.45;;;10.35;;
56991;SDS011;42885;49.754;18.636;2022-07-29T02:39:41;16.48;;;11.08;;
56991;SDS011;42885;49.754;18.636;2022-07-29T02:42:14;14.23;;;10.15;;
56991;SDS011;42885;49.754;18.636;2022-07-29T02:44:46;14.73;;;10.55;;
56991;SDS011;42885;49.754;18.636;2022-07-29T02:47:19;16.02;;;10.20;;
56991;SDS011;42885;49.754;18.636;2022-07-29T02:50:11;15.30;;;11.33;;
56991;SDS011;42885;49.754;18.636;2022-07-29T02:52:52;13.55;;;10.20;;
56991;SDS011;42885;49.754;18.636;2022-07-29T02:55:28;12.93;;;9.83;;
56991;SDS011;42885;49.754;18.636;2022-07-29T02:58:07;13.45;;;10.28;;
56991;SDS011;42885;49.754;18.636;2022-07-29T03:00:39;16.35;;;10.10;;
56991;SDS011;42885;49.754;18.636;2022-07-29T03:03:13;14.07;;;10.28;;
56991;SDS011;42885;49.754;18.636;2022-07-29T03:05:45;17.00;;;10.53;;
56991;SDS011;42885;49.754;18.636;2022-07-29T03:08:16;12.50;;;9.90;;
56991;SDS011;42885;49.754;18.636;2022-07-29T03:10:47;18.07;;;9.53;;
56991;SDS011;42885;49.754;18.636;2022-07-29T03:13:19;16.00;;;9.70;;
56991;SDS011;42885;49.754;18.636;2022-07-29T03:15:50;11.27;;;9.40;;
56991;SDS011;42885;49.754;18.636;2022-07-29T03:18:22;14.05;;;9.53;;
56991;SDS011;42885;49.754;18.636;2022-07-29T03:20:53;10.20;;;9.08;;
56991;SDS011;42885;49.754;18.636;2022-07-29T03:23:24;11.00;;;9.40;;
56991;SDS011;42885;49.754;18.636;2022-07-29T03:25:58;12.35;;;8.48;;
56991;SDS011;42885;49.754;18.636;2022-07-29T03:28:29;11.90;;;9.10;;
56991;SDS011;42885;49.754;18.636;2022-07-29T03:30:59;12.95;;;9.30;;
56991;SDS011;42885;49.754;18.636;2022-07-29T03:33:30;13.22;;;9.78;;
56991;SDS011;42885;49.754;18.636;2022-07-29T03:36:01;13.93;;;9.15;;
56991;SDS011;42885;49.754;18.636;2022-07-29T03:38:33;14.07;;;9.73;;
56991;SDS011;42885;49.754;18.636;2022-07-29T03:41:06;13.57;;;9.87;;
56991;SDS011;42885;49.754;18.636;2022-07-29T03:43:39;13.72;;;9.78;;
56991;SDS011;42885;49.754;18.636;2022-07-29T03:46:12;15.20;;;10.05;;
56991;SDS011;42885;49.754;18.636;2022-07-29T03:48:46;15.40;;;10.57;;
56991;SDS011;42885;49.754;18.636;2022-07-29T03:51:20;13.15;;;9.98;;
56991;SDS011;42885;49.754;18.636;2022-07-29T03:53:51;14.15;;;10.03;;
56991;SDS011;42885;49.754;18.636;2022-07-29T03:56:22;14.95;;;9.20;;
56991;SDS011;42885;49.754;18.636;2022-07-29T03:58:54;12.15;;;8.85;;
56991;SDS011;42885;49.754;18.636;2022-07-29T04:01:25;15.63;;;8.73;;
56991;SDS011;42885;49.754;18.636;2022-07-29T04:03:59;10.13;;;8.13;;
56991;SDS011;42885;49.754;18.636;2022-07-29T04:06:39;13.55;;;8.80;;
56991;SDS011;42885;49.754;18.636;2022-07-29T04:09:11;12.25;;;8.55;;
56991;SDS011;42885;49.754;18.636;2022-07-29T04:11:42;13.83;;;8.93;;
56991;SDS011;42885;49.754;18.636;2022-07-29T04:14:14;11.27;;;9.03;;
56991;SDS011;42885;49.754;18.636;2022-07-29T04:16:45;12.78;;;8.98;;
56991;SDS011;42885;49.754;18.636;2022-07-29T04:19:16;11.75;;;9.18;;
56991;SDS011;42885;49.754;18.636;2022-07-29T04:21:48;10.47;;;8.87;;
56991;SDS011;42885;49.754;18.636;2022-07-29T04:24:20;13.57;;;8.57;;
56991;SDS011;42885;49.754;18.636;2022-07-29T04:26:51;10.90;;;8.58;;
56991;SDS011;42885;49.754;18.636;2022-07-29T04:29:22;11.00;;;8.57;;
56991;SDS011;42885;49.754;18.636;2022-07-29T04:31:53;11.65;;;9.23;;
56991;SDS011;42885;49.754;18.636;2022-07-29T04:34:24;12.47;;;9.28;;
56991;SDS011;42885;49.754;18.636;2022-07-29T04:36:55;12.40;;;9.13;;
56991;SDS011;42885;49.754;18.636;2022-07-29T04:39:26;11.05;;;8.53;;
56991;SDS011;42885;49.754;18.636;2022-07-29T04:41:57;12.18;;;8.13;;
56991;SDS011;42885;49.754;18.636;2022-07-29T04:44:27;9.03;;;7.65;;
56991;SDS011;42885;49.754;18.636;2022-07-29T04:47:15;11.45;;;8.23;;
56991;SDS011;42885;49.754;18.636;2022-07-29T04:49:46;8.83;;;7.83;;
56991;SDS011;42885;49.754;18.636;2022-07-29T04:52:17;13.00;;;7.65;;
56991;SDS011;42885;49.754;18.636;2022-07-29T04:54:48;10.47;;;7.70;;
56991;SDS011;42885;49.754;18.636;2022-07-29T04:57:19;12.40;;;7.60;;
56991;SDS011;42885;49.754;18.636;2022-07-29T04:59:50;11.53;;;7.83;;
56991;SDS011;42885;49.754;18.636;2022-07-29T05:02:20;11.55;;;8.15;;
56991;SDS011;42885;49.754;18.636;2022-07-29T05:04:52;12.15;;;7.75;;
56991;SDS011;42885;49.754;18.636;2022-07-29T05:07:22;9.78;;;7.00;;
56991;SDS011;42885;49.754;18.636;2022-07-29T05:09:53;8.45;;;7.28;;
56991;SDS011;42885;49.754;18.636;2022-07-29T05:12:26;9.85;;;7.03;;
56991;SDS011;42885;49.754;18.636;2022-07-29T05:14:56;8.33;;;6.50;;
56991;SDS011;42885;49.754;18.636;2022-07-29T05:17:27;9.78;;;6.37;;
56991;SDS011;42885;49.754;18.636;2022-07-29T05:19:58;8.98;;;6.45;;
56991;SDS011;42885;49.754;18.636;2022-07-29T05:22:29;8.18;;;6.62;;
56991;SDS011;42885;49.754;18.636;2022-07-29T05:25:00;10.45;;;6.10;;
56991;SDS011;42885;49.754;18.636;2022-07-29T05:27:31;9.03;;;6.92;;
56991;SDS011;42885;49.754;18.636;2022-07-29T05:30:02;7.50;;;5.87;;
56991;SDS011;42885;49.754;18.636;2022-07-29T05:32:46;9.18;;;6.05;;
56991;SDS011;42885;49.754;18.636;2022-07-29T05:35:21;7.22;;;5.72;;
56991;SDS011;42885;49.754;18.636;2022-07-29T05:37:52;5.92;;;5.33;;
56991;SDS011;42885;49.754;18.636;2022-07-29T05:40:23;5.28;;;4.78;;
56991;SDS011;42885;49.754;18.636;2022-07-29T05:42:53;7.47;;;5.00;;
56991;SDS011;42885;49.754;18.636;2022-07-29T05:45:25;6.87;;;5.20;;
56991;SDS011;42885;49.754;18.636;2022-07-29T05:47:56;6.42;;;5.37;;
56991;SDS011;42885;49.754;18.636;2022-07-29T05:50:27;7.27;;;5.30;;
56991;SDS011;42885;49.754;18.636;2022-07-29T05:52:58;8.28;;;5.62;;
56991;SDS011;42885;49.754;18.636;2022-07-29T05:55:28;9.53;;;5.42;;
56991;SDS011;42885;49.754;18.636;2022-07-29T05:57:59;10.28;;;5.92;;
56991;SDS011;42885;49.754;18.636;2022-07-29T06:00:30;7.45;;;5.60;;
56991;SDS011;42885;49.754;18.636;2022-07-29T06:03:01;7.58;;;5.62;;
56991;SDS011;42885;49.754;18.636;2022-07-29T06:05:32;7.60;;;5.57;;
56991;SDS011;42885;49.754;18.636;2022-07-29T06:08:03;9.20;;;6.03;;
56991;SDS011;42885;49.754;18.636;2022-07-29T06:10:35;6.33;;;5.42;;
56991;SDS011;42885;49.754;18.636;2022-07-29T06:13:06;6.30;;;5.70;;
56991;SDS011;42885;49.754;18.636;2022-07-29T06:15:37;7.03;;;5.95;;
56991;SDS011;42885;49.754;18.636;2022-07-29T06:18:08;7.58;;;5.28;;
56991;SDS011;42885;49.754;18.636;2022-07-29T06:20:39;7.53;;;5.60;;
56991;SDS011;42885;49.754;18.636;2022-07-29T06:23:10;8.43;;;5.20;;
56991;SDS011;42885;49.754;18.636;2022-07-29T06:25:41;10.17;;;5.53;;
56991;SDS011;42885;49.754;18.636;2022-07-29T06:28:12;9.43;;;5.03;;
56991;SDS011;42885;49.754;18.636;2022-07-29T06:30:43;7.40;;;5.12;;
56991;SDS011;42885;49.754;18.636;2022-07-29T06:33:17;9.70;;;5.40;;
56991;SDS011;42885;49.754;18.636;2022-07-29T06:35:48;6.87;;;5.33;;
56991;SDS011;42885;49.754;18.636;2022-07-29T06:38:26;7.93;;;5.40;;
56991;SDS011;42885;49.754;18.636;2022-07-29T06:40:51;6.53;;;4.70;;
56991;SDS011;42885;49.754;18.636;2022-07-29T06:43:33;9.05;;;5.30;;
56991;SDS011;42885;49.754;18.636;2022-07-29T06:46:08;6.12;;;4.78;;
56991;SDS011;42885;49.754;18.636;2022-07-29T06:48:41;6.03;;;4.90;;
56991;SDS011;42885;49.754;18.636;2022-07-29T06:51:13;6.65;;;5.08;;
56991;SDS011;42885;49.754;18.636;2022-07-29T06:53:43;6.35;;;5.00;;
56991;SDS011;42885;49.754;18.636;2022-07-29T06:56:14;9.10;;;5.72;;
56991;SDS011;42885;49.754;18.636;2022-07-29T06:58:45;6.13;;;5.10;;
56991;SDS011;42885;49.754;18.636;2022-07-29T07:01:16;6.75;;;5.62;;
56991;SDS011;42885;49.754;18.636;2022-07-29T07:03:46;5.50;;;5.00;;
56991;SDS011;42885;49.754;18.636;2022-07-29T07:06:17;6.25;;;4.92;;
56991;SDS011;42885;49.754;18.636;2022-07-29T07:08:48;10.15;;;5.10;;
56991;SDS011;42885;49.754;18.636;2022-07-29T07:11:19;7.67;;;4.90;;
56991;SDS011;42885;49.754;18.636;2022-07-29T07:13:50;5.30;;;4.77;;
56991;SDS011;42885;49.754;18.636;2022-07-29T07:16:21;7.08;;;5.28;;
56991;SDS011;42885;49.754;18.636;2022-07-29T07:18:51;7.03;;;5.20;;
56991;SDS011;42885;49.754;18.636;2022-07-29T07:21:22;6.08;;;4.92;;
56991;SDS011;42885;49.754;18.636;2022-07-29T07:23:53;5.93;;;4.93;;
56991;SDS011;42885;49.754;18.636;2022-07-29T07:26:24;8.23;;;5.13;;
56991;SDS011;42885;49.754;18.636;2022-07-29T07:28:55;5.95;;;5.40;;
56991;SDS011;42885;49.754;18.636;2022-07-29T07:31:27;10.33;;;5.30;;
56991;SDS011;42885;49.754;18.636;2022-07-29T07:33:58;6.27;;;4.87;;
56991;SDS011;42885;49.754;18.636;2022-07-29T07:36:29;10.45;;;5.53;;
56991;SDS011;42885;49.754;18.636;2022-07-29T07:39:00;7.25;;;5.70;;
56991;SDS011;42885;49.754;18.636;2022-07-29T07:41:31;6.55;;;5.00;;
56991;SDS011;42885;49.754;18.636;2022-07-29T07:44:02;6.97;;;4.80;;
56991;SDS011;42885;49.754;18.636;2022-07-29T07:46:32;7.15;;;5.05;;
56991;SDS011;42885;49.754;18.636;2022-07-29T07:49:03;7.12;;;5.67;;
56991;SDS011;42885;49.754;18.636;2022-07-29T07:51:34;8.48;;;5.30;;
56991;SDS011;42885;49.754;18.636;2022-07-29T07:54:05;8.95;;;5.37;;
56991;SDS011;42885;49.754;18.636;2022-07-29T07:56:36;6.58;;;4.87;;
56991;SDS011;42885;49.754;18.636;2022-07-29T07:59:06;5.42;;;4.78;;
56991;SDS011;42885;49.754;18.636;2022-07-29T08:01:38;9.00;;;4.97;;
56991;SDS011;42885;49.754;18.636;2022-07-29T08:04:09;6.40;;;5.03;;
56991;SDS011;42885;49.754;18.636;2022-07-29T08:06:41;6.33;;;5.00;;
56991;SDS011;42885;49.754;18.636;2022-07-29T08:09:12;5.22;;;4.72;;
56991;SDS011;42885;49.754;18.636;2022-07-29T08:11:43;5.90;;;4.47;;
56991;SDS011;42885;49.754;18.636;2022-07-29T08:14:13;6.60;;;4.90;;
56991;SDS011;42885;49.754;18.636;2022-07-29T08:16:44;6.83;;;5.30;;
56991;SDS011;42885;49.754;18.636;2022-07-29T08:19:15;6.87;;;4.72;;
56991;SDS011;42885;49.754;18.636;2022-07-29T08:21:46;6.20;;;5.13;;
56991;SDS011;42885;49.754;18.636;2022-07-29T08:24:17;6.05;;;5.05;;
56991;SDS011;42885;49.754;18.636;2022-07-29T08:27:05;7.22;;;4.97;;
56991;SDS011;42885;49.754;18.636;2022-07-29T08:29:36;6.33;;;5.33;;
56991;SDS011;42885;49.754;18.636;2022-07-29T08:32:08;5.42;;;4.53;;
56991;SDS011;42885;49.754;18.636;2022-07-29T08:34:38;7.22;;;5.37;;
56991;SDS011;42885;49.754;18.636;2022-07-29T08:37:09;9.00;;;5.08;;
56991;SDS011;42885;49.754;18.636;2022-07-29T08:39:40;6.90;;;5.20;;
56991;SDS011;42885;49.754;18.636;2022-07-29T08:42:11;6.22;;;5.25;;
56991;SDS011;42885;49.754;18.636;2022-07-29T08:44:42;8.03;;;5.17;;
56991;SDS011;42885;49.754;18.636;2022-07-29T08:47:13;8.75;;;4.75;;
56991;SDS011;42885;49.754;18.636;2022-07-29T08:49:44;9.13;;;4.80;;
56991;SDS011;42885;49.754;18.636;2022-07-29T08:52:17;9.77;;;4.80;;
56991;SDS011;42885;49.754;18.636;2022-07-29T08:54:49;7.30;;;5.60;;
56991;SDS011;42885;49.754;18.636;2022-07-29T08:57:21;7.65;;;4.70;;
56991;SDS011;42885;49.754;18.636;2022-07-29T08:59:53;19.87;;;5.40;;
56991;SDS011;42885;49.754;18.636;2022-07-29T09:02:27;5.78;;;5.12;;
56991;SDS011;42885;49.754;18.636;2022-07-29T09:05:00;7.55;;;4.83;;
56991;SDS011;42885;49.754;18.636;2022-07-29T09:07:32;6.72;;;4.60;;
56991;SDS011;42885;49.754;18.636;2022-07-29T09:10:03;8.13;;;5.08;;
56991;SDS011;42885;49.754;18.636;2022-07-29T09:12:35;9.03;;;4.50;;
56991;SDS011;42885;49.754;18.636;2022-07-29T09:15:06;8.00;;;4.92;;
56991;SDS011;42885;49.754;18.636;2022-07-29T09:17:44;7.25;;;5.03;;
56991;SDS011;42885;49.754;18.636;2022-07-29T09:20:20;8.50;;;5.00;;
56991;SDS011;42885;49.754;18.636;2022-07-29T09:22:51;9.05;;;4.78;;
56991;SDS011;42885;49.754;18.636;2022-07-29T09:25:35;9.57;;;5.07;;
56991;SDS011;42885;49.754;18.636;2022-07-29T09:28:13;12.13;;;9.70;;
56991;SDS011;42885;49.754;18.636;2022-07-29T09:30:55;7.13;;;5.33;;
56991;SDS011;42885;49.754;18.636;2022-07-29T09:33:31;8.00;;;5.62;;
56991;SDS011;42885;49.754;18.636;2022-07-29T09:36:08;10.98;;;5.55;;
56991;SDS011;42885;49.754;18.636;2022-07-29T09:38:41;8.63;;;5.27;;
56991;SDS011;42885;49.754;18.636;2022-07-29T09:41:12;8.00;;;5.42;;
56991;SDS011;42885;49.754;18.636;2022-07-29T09:43:52;15.25;;;5.20;;
56991;SDS011;42885;49.754;18.636;2022-07-29T09:46:25;7.27;;;4.87;;
56991;SDS011;42885;49.754;18.636;2022-07-29T09:49:12;7.17;;;4.45;;
56991;SDS011;42885;49.754;18.636;2022-07-29T09:51:39;7.47;;;4.60;;
56991;SDS011;42885;49.754;18.636;2022-07-29T09:54:25;6.55;;;4.37;;
56991;SDS011;42885;49.754;18.636;2022-07-29T09:56:57;6.58;;;4.22;;
56991;SDS011;42885;49.754;18.636;2022-07-29T09:59:28;7.20;;;4.17;;
56991;SDS011;42885;49.754;18.636;2022-07-29T10:01:58;5.80;;;4.28;;
56991;SDS011;42885;49.754;18.636;2022-07-29T10:04:39;6.28;;;4.10;;
56991;SDS011;42885;49.754;18.636;2022-07-29T10:07:10;8.38;;;4.33;;
56991;SDS011;42885;49.754;18.636;2022-07-29T10:09:49;7.17;;;5.72;;
56991;SDS011;42885;49.754;18.636;2022-07-29T10:12:21;4.92;;;4.50;;
56991;SDS011;42885;49.754;18.636;2022-07-29T10:14:53;6.30;;;4.17;;
56991;SDS011;42885;49.754;18.636;2022-07-29T10:17:24;7.90;;;4.10;;
56991;SDS011;42885;49.754;18.636;2022-07-29T10:19:55;5.17;;;4.17;;
56991;SDS011;42885;49.754;18.636;2022-07-29T10:22:26;10.87;;;4.20;;
56991;SDS011;42885;49.754;18.636;2022-07-29T10:24:57;5.12;;;3.83;;
56991;SDS011;42885;49.754;18.636;2022-07-29T10:27:28;5.47;;;4.05;;
56991;SDS011;42885;49.754;18.636;2022-07-29T10:29:59;6.33;;;4.35;;
56991;SDS011;42885;49.754;18.636;2022-07-29T10:38:42;5.15;;;4.00;;
56991;SDS011;42885;49.754;18.636;2022-07-29T10:44:04;5.28;;;3.87;;
56991;SDS011;42885;49.754;18.636;2022-07-29T10:46:40;10.25;;;4.03;;
56991;SDS011;42885;49.754;18.636;2022-07-29T10:49:18;6.33;;;3.77;;
56991;SDS011;42885;49.754;18.636;2022-07-29T10:52:03;4.83;;;3.60;;
56991;SDS011;42885;49.754;18.636;2022-07-29T10:54:43;5.80;;;3.90;;
56991;SDS011;42885;49.754;18.636;2022-07-29T11:02:40;5.43;;;4.03;;
56991;SDS011;42885;49.754;18.636;2022-07-29T11:05:17;9.08;;;4.00;;
56991;SDS011;42885;49.754;18.636;2022-07-29T11:10:50;9.30;;;4.20;;
56991;SDS011;42885;49.754;18.636;2022-07-29T11:16:23;8.03;;;4.17;;
56991;SDS011;42885;49.754;18.636;2022-07-29T11:21:46;4.40;;;4.00;;
56991;SDS011;42885;49.754;18.636;2022-07-29T11:24:20;5.30;;;4.00;;
56991;SDS011;42885;49.754;18.636;2022-07-29T11:27:07;5.72;;;3.95;;
56991;SDS011;42885;49.754;18.636;2022-07-29T11:30:03;6.43;;;3.80;;
56991;SDS011;42885;49.754;18.636;2022-07-29T11:32:25;5.23;;;3.90;;
56991;SDS011;42885;49.754;18.636;2022-07-29T11:35:18;6.90;;;3.77;;
56991;SDS011;42885;49.754;18.636;2022-07-29T11:43:55;5.70;;;3.80;;
56991;SDS011;42885;49.754;18.636;2022-07-29T11:46:47;7.95;;;3.72;;
56991;SDS011;42885;49.754;18.636;2022-07-29T11:49:21;4.60;;;3.72;;
56991;SDS011;42885;49.754;18.636;2022-07-29T11:51:54;4.10;;;3.70;;
56991;SDS011;42885;49.754;18.636;2022-07-29T11:54:30;5.55;;;3.58;;
56991;SDS011;42885;49.754;18.636;2022-07-29T11:57:00;5.53;;;3.62;;
56991;SDS011;42885;49.754;18.636;2022-07-29T11:59:31;4.80;;;3.90;;
56991;SDS011;42885;49.754;18.636;2022-07-29T12:04:33;6.15;;;3.80;;
56991;SDS011;42885;49.754;18.636;2022-07-29T12:09:35;7.10;;;3.62;;
56991;SDS011;42885;49.754;18.636;2022-07-29T12:12:06;5.10;;;3.67;;
56991;SDS011;42885;49.754;18.636;2022-07-29T12:14:37;8.97;;;3.70;;
56991;SDS011;42885;49.754;18.636;2022-07-29T12:17:24;4.17;;;2.90;;
56991;SDS011;42885;49.754;18.636;2022-07-29T12:19:59;4.90;;;3.55;;
56991;SDS011;42885;49.754;18.636;2022-07-29T12:22:35;5.40;;;3.20;;
56991;SDS011;42885;49.754;18.636;2022-07-29T12:25:10;6.13;;;3.33;;
56991;SDS011;42885;49.754;18.636;2022-07-29T12:27:44;4.67;;;3.05;;
56991;SDS011;42885;49.754;18.636;2022-07-29T12:30:16;3.40;;;3.10;;
56991;SDS011;42885;49.754;18.636;2022-07-29T12:32:47;6.16;;;3.30;;
56991;SDS011;42885;49.754;18.636;2022-07-29T12:35:19;4.28;;;3.20;;
56991;SDS011;42885;49.754;18.636;2022-07-29T12:37:50;4.22;;;3.47;;
56991;SDS011;42885;49.754;18.636;2022-07-29T12:40:21;5.00;;;2.98;;
56991;SDS011;42885;49.754;18.636;2022-07-29T12:45:39;8.08;;;3.58;;
56991;SDS011;42885;49.754;18.636;2022-07-29T12:48:13;4.85;;;3.25;;
56991;SDS011;42885;49.754;18.636;2022-07-29T12:50:54;9.15;;;3.30;;
56991;SDS011;42885;49.754;18.636;2022-07-29T12:53:26;5.22;;;3.45;;
56991;SDS011;42885;49.754;18.636;2022-07-29T12:55:58;4.55;;;3.42;;
56991;SDS011;42885;49.754;18.636;2022-07-29T12:58:38;6.65;;;3.47;;
56991;SDS011;42885;49.754;18.636;2022-07-29T13:01:10;9.38;;;4.00;;
56991;SDS011;42885;49.754;18.636;2022-07-29T13:09:11;4.37;;;3.60;;
56991;SDS011;42885;49.754;18.636;2022-07-29T13:11:44;4.83;;;3.50;;
56991;SDS011;42885;49.754;18.636;2022-07-29T13:14:30;3.80;;;3.50;;
56991;SDS011;42885;49.754;18.636;2022-07-29T13:17:07;7.72;;;4.22;;
56991;SDS011;42885;49.754;18.636;2022-07-29T13:19:46;3.37;;;3.10;;
56991;SDS011;42885;49.754;18.636;2022-07-29T13:22:22;7.58;;;3.45;;
56991;SDS011;42885;49.754;18.636;2022-07-29T13:24:58;5.90;;;3.50;;
56991;SDS011;42885;49.754;18.636;2022-07-29T13:27:35;4.50;;;3.50;;
56991;SDS011;42885;49.754;18.636;2022-07-29T13:30:08;4.62;;;3.45;;
56991;SDS011;42885;49.754;18.636;2022-07-29T13:35:10;4.28;;;3.20;;
56991;SDS011;42885;49.754;18.636;2022-07-29T13:37:41;4.65;;;2.92;;
56991;SDS011;42885;49.754;18.636;2022-07-29T13:40:12;8.25;;;3.67;;
56991;SDS011;42885;49.754;18.636;2022-07-29T13:45:13;6.28;;;3.77;;
56991;SDS011;42885;49.754;18.636;2022-07-29T13:47:44;6.78;;;4.17;;
56991;SDS011;42885;49.754;18.636;2022-07-29T13:50:15;5.75;;;3.98;;
56991;SDS011;42885;49.754;18.636;2022-07-29T13:52:46;4.70;;;3.80;;
56991;SDS011;42885;49.754;18.636;2022-07-29T13:55:17;5.67;;;3.67;;
56991;SDS011;42885;49.754;18.636;2022-07-29T13:57:48;7.17;;;3.83;;
56991;SDS011;42885;49.754;18.636;2022-07-29T14:00:19;4.42;;;3.85;;
56991;SDS011;42885;49.754;18.636;2022-07-29T14:02:50;12.33;;;4.42;;
56991;SDS011;42885;49.754;18.636;2022-07-29T14:05:21;7.70;;;3.33;;
56991;SDS011;42885;49.754;18.636;2022-07-29T14:07:52;6.15;;;4.00;;
56991;SDS011;42885;49.754;18.636;2022-07-29T14:10:22;5.97;;;3.62;;
56991;SDS011;42885;49.754;18.636;2022-07-29T14:12:53;11.53;;;4.67;;
56991;SDS011;42885;49.754;18.636;2022-07-29T14:15:24;6.30;;;3.97;;
56991;SDS011;42885;49.754;18.636;2022-07-29T14:17:55;7.20;;;3.67;;
56991;SDS011;42885;49.754;18.636;2022-07-29T14:20:26;9.38;;;3.50;;
56991;SDS011;42885;49.754;18.636;2022-07-29T14:22:58;4.77;;;3.20;;
56991;SDS011;42885;49.754;18.636;2022-07-29T14:25:29;5.62;;;3.20;;
56991;SDS011;42885;49.754;18.636;2022-07-29T14:28:00;6.85;;;3.67;;
56991;SDS011;42885;49.754;18.636;2022-07-29T14:30:30;6.17;;;3.30;;
56991;SDS011;42885;49.754;18.636;2022-07-29T14:33:01;8.87;;;3.60;;
56991;SDS011;42885;49.754;18.636;2022-07-29T14:35:32;8.93;;;3.90;;
56991;SDS011;42885;49.754;18.636;2022-07-29T14:38:03;4.85;;;3.47;;
56991;SDS011;42885;49.754;18.636;2022-07-29T14:40:34;5.08;;;3.17;;
56991;SDS011;42885;49.754;18.636;2022-07-29T14:43:05;4.08;;;3.20;;
56991;SDS011;42885;49.754;18.636;2022-07-29T14:45:36;3.65;;;3.33;;
56991;SDS011;42885;49.754;18.636;2022-07-29T14:48:06;4.03;;;3.30;;
56991;SDS011;42885;49.754;18.636;2022-07-29T14:50:37;4.53;;;3.17;;
56991;SDS011;42885;49.754;18.636;2022-07-29T14:53:08;6.15;;;3.67;;
56991;SDS011;42885;49.754;18.636;2022-07-29T14:55:40;4.47;;;3.10;;
56991;SDS011;42885;49.754;18.636;2022-07-29T14:58:11;3.67;;;3.00;;
56991;SDS011;42885;49.754;18.636;2022-07-29T15:00:42;6.57;;;5.43;;
56991;SDS011;42885;49.754;18.636;2022-07-29T15:03:13;6.60;;;3.70;;
56991;SDS011;42885;49.754;18.636;2022-07-29T15:05:44;5.83;;;3.30;;
56991;SDS011;42885;49.754;18.636;2022-07-29T15:08:15;4.78;;;3.12;;
56991;SDS011;42885;49.754;18.636;2022-07-29T15:10:45;3.75;;;3.00;;
56991;SDS011;42885;49.754;18.636;2022-07-29T15:13:16;6.22;;;3.27;;
56991;SDS011;42885;49.754;18.636;2022-07-29T15:15:47;5.03;;;3.40;;
56991;SDS011;42885;49.754;18.636;2022-07-29T15:18:18;5.85;;;3.15;;
56991;SDS011;42885;49.754;18.636;2022-07-29T15:20:49;6.55;;;3.47;;
56991;SDS011;42885;49.754;18.636;2022-07-29T15:23:20;6.95;;;2.30;;
56991;SDS011;42885;49.754;18.636;2022-07-29T15:25:51;7.03;;;2.00;;
56991;SDS011;42885;49.754;18.636;2022-07-29T15:28:22;3.47;;;1.80;;
56991;SDS011;42885;49.754;18.636;2022-07-29T15:30:54;3.22;;;1.57;;
56991;SDS011;42885;49.754;18.636;2022-07-29T15:33:25;3.25;;;1.60;;
56991;SDS011;42885;49.754;18.636;2022-07-29T15:35:56;3.63;;;1.40;;
56991;SDS011;42885;49.754;18.636;2022-07-29T15:38:27;5.25;;;1.92;;
56991;SDS011;42885;49.754;18.636;2022-07-29T15:40:57;5.45;;;1.80;;
56991;SDS011;42885;49.754;18.636;2022-07-29T15:43:28;4.30;;;2.80;;
56991;SDS011;42885;49.754;18.636;2022-07-29T15:45:59;6.72;;;3.55;;
56991;SDS011;42885;49.754;18.636;2022-07-29T15:48:48;4.72;;;2.00;;
56991;SDS011;42885;49.754;18.636;2022-07-29T15:51:19;3.70;;;2.05;;
56991;SDS011;42885;49.754;18.636;2022-07-29T15:53:50;3.35;;;2.05;;
56991;SDS011;42885;49.754;18.636;2022-07-29T15:56:21;3.25;;;1.70;;
56991;SDS011;42885;49.754;18.636;2022-07-29T15:58:53;4.35;;;3.58;;
56991;SDS011;42885;49.754;18.636;2022-07-29T16:01:24;4.35;;;1.75;;
56991;SDS011;42885;49.754;18.636;2022-07-29T16:03:54;1.98;;;1.75;;
56991;SDS011;42885;49.754;18.636;2022-07-29T16:06:26;3.93;;;1.80;;